This is the latest recevied weather packets stored in our database for station/object WX9WTF. If no packets are shown the sender has not sent any weather packets the latest 10 day(s).
| Time | Temp. | Humidity | Pressure | Rain* | Wind** | Luminosity | Snow |
|---|---|---|---|---|---|---|---|
| 1777964988 | 11.11° C | 96% | 1007.6 hPa | 4.32 mm | - | 0 W/m² | - |
| 1777964684 | 11.11° C | 95% | 1007.6 hPa | 6.1 mm | - | 0 W/m² | - |
| 1777964380 | 11.11° C | 94% | 1007.9 hPa | 6.1 mm | - | 0 W/m² | - |
| 1777964077 | 11.11° C | 94% | 1008.2 hPa | 7.87 mm | - | 0 W/m² | - |
| 1777963773 | 11.67° C | 92% | 1007.6 hPa | 20.32 mm | - | 0 W/m² | - |
| 1777963471 | 12.22° C | 91% | 1007.1 hPa | 27.69 mm | - | 0 W/m² | - |
| 1777963169 | 12.78° C | 87% | 1007.3 hPa | 18.03 mm | - | 0 W/m² | - |
| 1777962865 | 13.33° C | 84% | 1006.8 hPa | 3.05 mm | - | 0 W/m² | - |
| 1777962562 | 13.89° C | 81% | 1006.7 hPa | 1.27 mm | - | 0 W/m² | - |
| 1777962259 | 15° C | 78% | 1006.5 hPa | 1.27 mm | - | 0 W/m² | - |
| 1777961955 | 15° C | 75% | 1006.4 hPa | 3.05 mm | - | 0 W/m² | - |
| 1777961654 | 15.56° C | 73% | 1006.1 hPa | 3.05 mm | - | 0 W/m² | - |
| 1777961351 | 16.11° C | 71% | 1005.8 hPa | 1.27 mm | - | 0 W/m² | - |
| 1777961048 | 17.22° C | 67% | 1005.5 hPa | 0.51 mm | - | 0 W/m² | - |
| 1777960744 | 18.33° C | 64% | 1005.2 hPa | 1.27 mm | - | 0 W/m² | - |
| 1777960440 | 20° C | 61% | 1005.1 hPa | 0.51 mm | - | 0 W/m² | - |
| 1777960137 | 20.56° C | 61% | 1004.9 hPa | 0 mm | - | 0 W/m² | - |
| 1777959834 | 20.56° C | 62% | 1004.8 hPa | 0 mm | - | 0 W/m² | - |
| 1777959533 | 20.56° C | 63% | 1005.2 hPa | 0 mm | - | 0 W/m² | - |
| 1777959230 | 19.44° C | 78% | 1004.8 hPa | 0 mm | - | 0 W/m² | - |
| 1777958926 | 19.44° C | 78% | 1004.9 hPa | 0 mm | - | 0 W/m² | - |
| 1777958623 | 18.89° C | 81% | 1004.5 hPa | 0 mm | - | 0 W/m² | - |
| 1777958320 | 18.33° C | 82% | 1004.4 hPa | 0 mm | - | 0 W/m² | - |
| 1777958017 | 18.33° C | 83% | 1003.9 hPa | 0 mm | - | 0 W/m² | - |
| 1777957715 | 18.33° C | 83% | 1003.6 hPa | 0 mm | - | 0 W/m² | - |
* Rain latest hour (hover to see other rain measurements)
** Current wind speed in m/s (hover to see current wind gust speed)